createdAt,value
2019-02-14T00:01:22.558Z,-2.10
2019-02-14T00:03:50.444Z,-2.10
2019-02-14T00:06:18.337Z,-2.10
2019-02-14T00:08:46.222Z,-2.20
2019-02-14T00:11:14.080Z,-2.20
2019-02-14T00:13:41.928Z,-2.10
2019-02-14T00:16:11.421Z,-2.20
2019-02-14T00:18:39.323Z,-2.20
2019-02-14T00:21:07.277Z,-2.20
2019-02-14T00:23:35.179Z,-2.30
2019-02-14T00:26:03.075Z,-2.30
2019-02-14T00:28:30.953Z,-2.30
2019-02-14T00:30:58.794Z,-2.30
2019-02-14T00:33:26.717Z,-2.30
2019-02-14T00:35:54.626Z,-2.40
2019-02-14T00:38:22.569Z,-2.40
2019-02-14T00:40:50.460Z,-2.40
2019-02-14T00:43:18.350Z,-2.40
2019-02-14T00:45:46.214Z,-2.30
2019-02-14T00:48:14.095Z,-2.30
2019-02-14T00:50:42.010Z,-2.40
2019-02-14T00:53:09.883Z,-2.40
2019-02-14T00:55:37.742Z,-2.40
2019-02-14T00:58:05.622Z,-2.50
2019-02-14T01:00:33.455Z,-2.50
2019-02-14T01:03:01.334Z,-2.50
2019-02-14T01:05:33.718Z,-2.50
2019-02-14T01:07:58.807Z,-2.50
2019-02-14T01:10:26.659Z,-2.50
2019-02-14T01:12:55.663Z,-2.50
2019-02-14T01:15:25.231Z,-2.50
2019-02-14T01:17:53.106Z,-2.60
2019-02-14T01:20:21.044Z,-2.60
2019-02-14T01:22:48.966Z,-2.60
2019-02-14T01:25:16.835Z,-2.60
2019-02-14T01:27:44.663Z,-2.60
2019-02-14T01:30:12.660Z,-2.60
2019-02-14T01:32:40.557Z,-2.70
2019-02-14T01:35:08.397Z,-2.70
2019-02-14T01:37:36.255Z,-2.70
2019-02-14T01:40:04.103Z,-2.70
2019-02-14T01:42:31.970Z,-2.80
2019-02-14T01:44:59.832Z,-2.80
2019-02-14T01:47:27.799Z,-2.80
2019-02-14T01:49:55.680Z,-2.80
2019-02-14T01:52:23.611Z,-2.80
2019-02-14T01:54:51.486Z,-2.80
2019-02-14T01:57:19.337Z,-2.90
2019-02-14T01:59:47.235Z,-2.90
2019-02-14T02:02:15.092Z,-2.90
2019-02-14T02:04:43.069Z,-2.90
2019-02-14T02:07:11.110Z,-2.90
2019-02-14T02:09:38.991Z,-2.90
2019-02-14T02:12:06.828Z,-3.00
2019-02-14T02:14:34.815Z,-3.00
2019-02-14T02:17:02.683Z,-3.00
2019-02-14T02:19:30.591Z,-3.00
2019-02-14T02:21:58.572Z,-3.00
2019-02-14T02:24:26.448Z,-3.10
2019-02-14T02:26:53.719Z,-3.10
2019-02-14T02:29:21.617Z,-3.10
2019-02-14T02:31:49.479Z,-3.10
2019-02-14T02:34:17.371Z,-3.10
2019-02-14T02:36:45.215Z,-3.10
2019-02-14T02:39:13.094Z,-3.10
2019-02-14T02:41:41.005Z,-3.10
2019-02-14T02:44:09.166Z,-3.10
2019-02-14T02:46:37.074Z,-3.10
2019-02-14T02:49:04.963Z,-3.10
2019-02-14T02:51:32.793Z,-3.20
2019-02-14T02:54:00.686Z,-3.20
2019-02-14T02:56:28.590Z,-3.20
2019-02-14T02:58:56.473Z,-3.20
2019-02-14T03:01:24.369Z,-3.20
2019-02-14T03:03:52.269Z,-3.20
2019-02-14T03:06:20.174Z,-3.30
2019-02-14T03:08:48.079Z,-3.30
2019-02-14T03:11:15.938Z,-3.30
2019-02-14T03:13:43.834Z,-3.20
2019-02-14T03:16:30.725Z,-3.30
2019-02-14T03:18:58.597Z,-3.30
2019-02-14T03:21:26.580Z,-3.30
2019-02-14T03:23:54.422Z,-3.30
2019-02-14T03:26:22.378Z,-3.30
2019-02-14T03:28:50.265Z,-3.30
2019-02-14T03:31:18.282Z,-3.30
2019-02-14T03:33:46.274Z,-3.30
2019-02-14T03:36:19.231Z,-3.40
2019-02-14T03:38:43.809Z,-3.40
2019-02-14T03:41:11.738Z,-3.40
2019-02-14T03:43:39.620Z,-3.40
2019-02-14T03:46:07.476Z,-3.40
2019-02-14T03:48:35.363Z,-3.40
2019-02-14T03:51:03.243Z,-3.50
2019-02-14T03:53:31.068Z,-3.50
2019-02-14T03:55:58.933Z,-3.50
2019-02-14T03:58:26.779Z,-3.50
2019-02-14T04:00:54.647Z,-3.50
2019-02-14T04:03:22.606Z,-3.50
2019-02-14T04:05:50.526Z,-3.60
2019-02-14T04:08:18.361Z,-3.60
2019-02-14T04:10:46.226Z,-3.60
2019-02-14T04:13:14.128Z,-3.60
2019-02-14T04:15:42.293Z,-3.60
2019-02-14T04:18:10.184Z,-3.60
2019-02-14T04:20:38.167Z,-3.60
2019-02-14T04:23:07.658Z,-3.60
2019-02-14T04:25:35.542Z,-3.60
2019-02-14T04:28:03.398Z,-3.60
2019-02-14T04:30:31.269Z,-3.60
2019-02-14T04:32:59.139Z,-3.60
2019-02-14T04:35:27.045Z,-3.60
2019-02-14T04:37:54.939Z,-3.60
2019-02-14T04:40:22.296Z,-3.60
2019-02-14T04:42:50.170Z,-3.70
2019-02-14T04:45:18.048Z,-3.60
2019-02-14T04:47:45.946Z,-3.70
2019-02-14T04:50:13.253Z,-3.70
2019-02-14T04:52:41.246Z,-3.70
2019-02-14T04:55:09.096Z,-3.70
2019-02-14T04:57:37.031Z,-3.80
2019-02-14T05:00:04.988Z,-3.80
2019-02-14T05:02:32.920Z,-3.80
2019-02-14T05:05:00.814Z,-3.80
2019-02-14T05:07:28.662Z,-3.80
2019-02-14T05:09:55.956Z,-3.80
2019-02-14T05:12:23.903Z,-3.80
2019-02-14T05:14:51.795Z,-3.90
2019-02-14T05:17:19.070Z,-3.80
2019-02-14T05:19:47.050Z,-3.90
2019-02-14T05:22:14.977Z,-3.90
2019-02-14T05:24:42.274Z,-4.00
2019-02-14T05:27:10.226Z,-4.00
2019-02-14T05:29:38.141Z,-4.00
2019-02-14T05:32:05.982Z,-4.00
2019-02-14T05:34:33.850Z,-4.00
2019-02-14T05:37:01.717Z,-4.10
2019-02-14T05:39:29.570Z,-4.10
2019-02-14T05:41:57.480Z,-4.10
2019-02-14T05:44:25.401Z,-4.10
2019-02-14T05:46:52.894Z,-4.10
2019-02-14T05:49:20.802Z,-4.10
2019-02-14T05:51:48.682Z,-4.20
2019-02-14T05:54:16.577Z,-4.20
2019-02-14T05:56:44.438Z,-4.20
2019-02-14T05:59:12.302Z,-4.20
2019-02-14T06:01:40.306Z,-4.20
2019-02-14T06:04:08.149Z,-4.20
2019-02-14T06:06:35.991Z,-4.20
2019-02-14T06:09:05.544Z,-4.20
2019-02-14T06:11:32.854Z,-4.20
2019-02-14T06:14:00.146Z,-4.30
2019-02-14T06:16:28.028Z,-4.20
2019-02-14T06:18:55.889Z,-4.20
2019-02-14T06:21:23.750Z,-4.30
2019-02-14T06:23:51.630Z,-4.30
2019-02-14T06:26:19.485Z,-4.30
2019-02-14T06:28:47.368Z,-4.30
2019-02-14T06:31:15.279Z,-4.30
2019-02-14T06:33:44.287Z,-4.30
2019-02-14T06:36:12.416Z,-4.30
2019-02-14T06:38:39.741Z,-4.40
2019-02-14T06:41:07.728Z,-4.40
2019-02-14T06:43:34.997Z,-4.40
2019-02-14T06:46:02.858Z,-4.40
2019-02-14T06:48:30.758Z,-4.40
2019-02-14T06:50:58.592Z,-4.40
2019-02-14T06:53:26.466Z,-4.30
2019-02-14T06:55:54.293Z,-4.40
2019-02-14T06:58:21.589Z,-4.40
2019-02-14T07:00:48.877Z,-4.40
2019-02-14T07:03:16.741Z,-4.40
2019-02-14T07:05:44.065Z,-4.40
2019-02-14T07:08:11.355Z,-4.50
2019-02-14T07:10:38.625Z,-4.40
2019-02-14T07:13:06.485Z,-4.40
2019-02-14T07:15:34.303Z,-4.30
2019-02-14T07:18:01.560Z,-4.30
2019-02-14T07:20:28.921Z,-4.30
2019-02-14T07:22:56.813Z,-4.40
2019-02-14T07:25:24.669Z,-4.40
2019-02-14T07:27:52.498Z,-4.40
2019-02-14T07:30:20.379Z,-4.40
2019-02-14T07:32:48.237Z,-4.40
2019-02-14T07:35:16.174Z,-4.30
2019-02-14T07:37:43.521Z,-4.30
2019-02-14T07:40:10.794Z,-4.30
2019-02-14T07:42:38.633Z,-4.30
2019-02-14T07:45:06.521Z,-4.30
2019-02-14T07:47:34.414Z,-4.30
2019-02-14T07:50:02.256Z,-4.30
2019-02-14T07:52:30.082Z,-4.20
2019-02-14T07:54:58.045Z,-4.20
2019-02-14T07:57:26.054Z,-4.20
2019-02-14T07:59:53.941Z,-4.20
2019-02-14T08:02:21.845Z,-4.20
2019-02-14T08:04:49.692Z,-4.20
2019-02-14T08:07:16.975Z,-4.10
2019-02-14T08:09:44.885Z,-4.10
2019-02-14T08:12:12.747Z,-4.00
2019-02-14T08:14:40.706Z,-3.90
2019-02-14T08:17:08.588Z,-3.90
2019-02-14T08:19:36.515Z,-3.90
2019-02-14T08:22:04.471Z,-3.90
2019-02-14T08:24:32.353Z,-3.80
2019-02-14T08:27:00.191Z,-3.80
2019-02-14T08:29:28.084Z,-3.60
2019-02-14T08:31:55.958Z,-3.40
2019-02-14T08:34:23.289Z,-3.30
2019-02-14T08:36:51.143Z,-3.10
2019-02-14T08:39:19.032Z,-3.00
2019-02-14T08:41:46.875Z,-2.80
2019-02-14T08:44:14.854Z,-2.80
2019-02-14T08:46:42.726Z,-2.70
2019-02-14T08:49:10.698Z,-2.60
2019-02-14T08:51:38.530Z,-2.50
2019-02-14T08:54:06.496Z,-2.40
2019-02-14T08:56:34.469Z,-2.30
2019-02-14T08:59:02.427Z,-2.20
2019-02-14T09:01:30.297Z,-2.00
2019-02-14T09:03:58.195Z,-1.90
2019-02-14T09:06:26.064Z,-1.70
2019-02-14T09:08:53.954Z,-1.60
2019-02-14T09:11:21.796Z,-1.50
2019-02-14T09:13:49.643Z,-1.40
2019-02-14T09:16:17.514Z,-1.30
2019-02-14T09:18:45.399Z,-1.10
2019-02-14T09:21:13.282Z,-1.00
2019-02-14T09:23:41.135Z,-0.90
2019-02-14T09:26:08.999Z,-0.70
2019-02-14T09:28:36.877Z,-0.50
2019-02-14T09:31:04.786Z,-0.20
2019-02-14T09:33:32.633Z,0.10
2019-02-14T09:36:00.518Z,0.40
2019-02-14T09:38:28.378Z,0.60
2019-02-14T09:40:56.241Z,0.80
2019-02-14T09:43:29.561Z,1.00
2019-02-14T09:45:53.650Z,1.20
2019-02-14T09:48:21.518Z,1.50
2019-02-14T09:50:49.486Z,1.80
2019-02-14T09:53:17.351Z,2.00
2019-02-14T09:55:45.230Z,2.20
2019-02-14T09:58:13.073Z,2.40
2019-02-14T10:00:40.973Z,2.60
2019-02-14T10:03:08.882Z,2.80
2019-02-14T10:05:36.841Z,2.90
2019-02-14T10:08:12.467Z,3.10
2019-02-14T10:10:34.420Z,3.30
2019-02-14T10:13:02.270Z,3.50
2019-02-14T10:15:30.106Z,3.60
2019-02-14T10:17:58.088Z,3.80
2019-02-14T10:20:25.959Z,3.90
2019-02-14T10:22:53.934Z,4.10
2019-02-14T10:25:21.902Z,4.20
2019-02-14T10:27:49.798Z,4.40
2019-02-14T10:30:17.734Z,4.60
2019-02-14T10:32:45.624Z,4.80
2019-02-14T10:35:13.608Z,4.90
2019-02-14T10:37:41.440Z,5.20
2019-02-14T10:40:09.353Z,5.40
2019-02-14T10:42:37.259Z,5.60
2019-02-14T10:45:05.120Z,5.80
2019-02-14T10:47:33.000Z,5.90
2019-02-14T10:50:00.954Z,6.00
2019-02-14T10:52:28.811Z,6.10
2019-02-14T10:54:56.711Z,6.30
2019-02-14T10:57:24.581Z,6.50
2019-02-14T10:59:52.457Z,6.70
2019-02-14T11:02:20.530Z,6.80
2019-02-14T11:04:48.485Z,6.90
2019-02-14T11:07:16.310Z,6.90
2019-02-14T11:09:44.167Z,7.00
2019-02-14T11:12:12.223Z,7.10
2019-02-14T11:14:40.073Z,7.10
2019-02-14T11:17:07.908Z,7.30
2019-02-14T11:19:35.881Z,7.40
2019-02-14T11:22:03.748Z,7.50
2019-02-14T11:24:31.635Z,7.60
2019-02-14T11:26:59.498Z,7.60
2019-02-14T11:29:27.387Z,7.70
2019-02-14T11:31:55.225Z,7.90
2019-02-14T11:34:23.118Z,8.00
2019-02-14T11:36:50.945Z,8.00
2019-02-14T11:39:18.797Z,8.00
2019-02-14T11:41:46.646Z,8.10
2019-02-14T11:44:14.630Z,8.10
2019-02-14T11:46:51.100Z,8.20
2019-02-14T11:49:12.031Z,8.10
2019-02-14T11:51:39.864Z,8.00
2019-02-14T11:54:07.706Z,8.00
2019-02-14T11:56:35.634Z,8.00
2019-02-14T11:59:03.485Z,8.10
2019-02-14T12:01:31.389Z,8.10
2019-02-14T12:03:59.244Z,8.20
2019-02-14T12:06:27.151Z,8.30
2019-02-14T12:09:00.118Z,8.50
2019-02-14T12:11:24.616Z,8.60
2019-02-14T12:13:52.472Z,8.70
2019-02-14T12:16:20.356Z,8.90
2019-02-14T12:18:48.187Z,9.10
2019-02-14T12:21:16.008Z,9.60
2019-02-14T12:23:43.855Z,10.20
2019-02-14T12:26:11.749Z,11.00
2019-02-14T12:28:39.625Z,11.90
2019-02-14T12:31:07.500Z,12.80
2019-02-14T12:33:35.495Z,13.60
2019-02-14T12:36:03.334Z,14.30
2019-02-14T12:38:31.209Z,14.70
2019-02-14T12:40:59.085Z,15.00
2019-02-14T12:43:26.967Z,15.60
2019-02-14T12:45:54.830Z,16.10
2019-02-14T12:48:22.669Z,15.90
2019-02-14T12:50:50.526Z,15.60
2019-02-14T12:53:18.368Z,15.70
2019-02-14T12:55:47.697Z,16.00
2019-02-14T12:58:15.702Z,16.40
2019-02-14T13:00:43.566Z,16.70
2019-02-14T13:03:11.422Z,16.30
2019-02-14T13:05:39.329Z,16.40
2019-02-14T13:08:07.193Z,16.30
2019-02-14T13:10:35.103Z,15.90
2019-02-14T13:13:02.971Z,15.00
2019-02-14T13:15:30.810Z,14.20
2019-02-14T13:17:58.642Z,13.40
2019-02-14T13:20:26.523Z,12.70
2019-02-14T13:22:54.377Z,12.20
2019-02-14T13:25:22.252Z,11.80
2019-02-14T13:27:50.092Z,11.40
2019-02-14T13:30:17.947Z,11.20
2019-02-14T13:32:45.835Z,11.00
2019-02-14T13:35:13.722Z,10.80
2019-02-14T13:37:41.580Z,10.70
2019-02-14T13:40:09.454Z,10.60
2019-02-14T13:42:37.316Z,10.50
2019-02-14T13:45:05.168Z,10.40
2019-02-14T13:47:33.035Z,10.30
2019-02-14T13:50:00.918Z,10.30
2019-02-14T13:52:28.823Z,10.30
2019-02-14T13:54:56.700Z,10.20
2019-02-14T13:57:24.595Z,10.20
2019-02-14T13:59:52.428Z,10.10
2019-02-14T14:02:20.278Z,10.00
2019-02-14T14:04:48.158Z,9.90
2019-02-14T14:07:16.106Z,9.80
2019-02-14T14:09:43.976Z,9.60
2019-02-14T14:12:11.882Z,9.50
2019-02-14T14:14:39.709Z,9.30
2019-02-14T14:17:07.558Z,9.20
2019-02-14T14:19:35.413Z,9.10
2019-02-14T14:22:03.289Z,9.30
2019-02-14T14:24:31.155Z,9.40
2019-02-14T14:26:59.031Z,9.50
2019-02-14T14:29:26.879Z,9.40
2019-02-14T14:31:54.749Z,9.30
2019-02-14T14:34:22.595Z,9.30
2019-02-14T14:36:50.457Z,9.20
2019-02-14T14:39:18.318Z,9.20
2019-02-14T14:41:46.198Z,9.30
2019-02-14T14:44:26.555Z,9.30
2019-02-14T14:47:00.475Z,9.20
2019-02-14T14:49:28.624Z,9.10
2019-02-14T14:51:56.451Z,9.00
2019-02-14T14:54:24.333Z,9.00
2019-02-14T14:56:52.205Z,9.00
2019-02-14T14:59:20.547Z,8.90
2019-02-14T15:01:48.688Z,8.90
2019-02-14T15:04:16.525Z,8.80
2019-02-14T15:06:44.398Z,8.80
2019-02-14T15:09:12.241Z,8.80
2019-02-14T15:11:40.078Z,8.90
2019-02-14T15:14:07.975Z,8.90
2019-02-14T15:16:35.852Z,8.80
2019-02-14T15:19:03.714Z,8.90
2019-02-14T15:21:31.543Z,9.00
2019-02-14T15:23:59.455Z,8.90
2019-02-14T15:26:27.335Z,9.00
2019-02-14T15:28:55.222Z,8.90
2019-02-14T15:31:23.179Z,8.80
2019-02-14T15:33:51.044Z,8.70
2019-02-14T15:36:18.922Z,8.60
2019-02-14T15:38:46.823Z,8.50
2019-02-14T15:41:14.696Z,8.40
2019-02-14T15:43:42.540Z,8.40
2019-02-14T15:46:10.385Z,8.30
2019-02-14T15:48:38.224Z,8.20
2019-02-14T15:51:06.194Z,8.10
2019-02-14T15:53:34.063Z,8.00
2019-02-14T15:56:03.417Z,7.80
2019-02-14T15:58:33.029Z,7.60
2019-02-14T16:01:01.063Z,7.50
2019-02-14T16:03:28.999Z,7.40
2019-02-14T16:05:56.873Z,7.30
2019-02-14T16:08:24.736Z,7.10
2019-02-14T16:10:55.573Z,6.90
2019-02-14T16:13:22.243Z,6.80
2019-02-14T16:15:50.099Z,6.60
2019-02-14T16:18:17.945Z,6.50
2019-02-14T16:20:45.864Z,6.40
2019-02-14T16:23:13.793Z,6.30
2019-02-14T16:25:41.634Z,6.20
2019-02-14T16:28:11.529Z,6.00
2019-02-14T16:30:39.163Z,5.90
2019-02-14T16:33:07.038Z,5.70
2019-02-14T16:35:34.932Z,5.60
2019-02-14T16:38:02.802Z,5.40
2019-02-14T16:40:38.343Z,5.30
2019-02-14T16:43:00.248Z,5.20
2019-02-14T16:45:28.096Z,5.10
2019-02-14T16:47:55.955Z,4.90
2019-02-14T16:50:23.795Z,4.80
2019-02-14T16:52:51.669Z,4.70
2019-02-14T16:55:19.529Z,4.60
2019-02-14T16:57:47.515Z,4.50
2019-02-14T17:00:15.371Z,4.30
2019-02-14T17:02:43.218Z,4.20
2019-02-14T17:05:11.119Z,4.10
2019-02-14T17:07:38.992Z,4.10
2019-02-14T17:10:07.035Z,4.00
2019-02-14T17:12:34.952Z,3.90
2019-02-14T17:15:02.922Z,3.80
2019-02-14T17:17:33.868Z,3.70
2019-02-14T17:20:01.812Z,3.60
2019-02-14T17:22:29.740Z,3.50
2019-02-14T17:24:57.642Z,3.40
2019-02-14T17:27:27.485Z,3.30
2019-02-14T17:29:55.443Z,3.30
2019-02-14T17:32:23.422Z,3.20
2019-02-14T17:34:51.355Z,3.10
2019-02-14T17:37:19.351Z,3.00
2019-02-14T17:39:47.225Z,3.00
2019-02-14T17:42:15.098Z,3.00
2019-02-14T17:44:43.049Z,3.00
2019-02-14T17:47:11.086Z,2.90
2019-02-14T17:49:39.014Z,2.80
2019-02-14T17:52:06.949Z,2.70
2019-02-14T17:54:34.788Z,2.70
2019-02-14T17:57:02.778Z,2.60
2019-02-14T17:59:31.038Z,2.50
2019-02-14T18:01:59.261Z,2.40
2019-02-14T18:04:27.165Z,2.30
2019-02-14T18:06:55.057Z,2.30
2019-02-14T18:09:22.929Z,2.30
2019-02-14T18:11:50.823Z,2.30
2019-02-14T18:14:18.678Z,2.20
2019-02-14T18:16:46.626Z,2.20
2019-02-14T18:19:14.480Z,2.10
2019-02-14T18:21:42.349Z,2.10
2019-02-14T18:24:10.319Z,2.00
2019-02-14T18:26:38.224Z,2.00
2019-02-14T18:29:06.159Z,2.00
2019-02-14T18:31:34.190Z,1.90
2019-02-14T18:34:02.097Z,1.80
2019-02-14T18:36:29.968Z,1.70
2019-02-14T18:38:58.188Z,1.60
2019-02-14T18:41:26.126Z,1.60
2019-02-14T18:43:53.972Z,1.60
2019-02-14T18:46:21.935Z,1.50
2019-02-14T18:48:49.863Z,1.40
2019-02-14T18:51:17.799Z,1.40
2019-02-14T18:53:45.764Z,1.40
2019-02-14T18:56:13.701Z,1.30
2019-02-14T18:58:41.626Z,1.30
2019-02-14T19:01:09.581Z,1.20
2019-02-14T19:03:37.506Z,1.30
2019-02-14T19:06:05.446Z,1.20
2019-02-14T19:08:33.355Z,1.10
2019-02-14T19:11:01.312Z,1.10
2019-02-14T19:13:29.373Z,1.10
2019-02-14T19:15:57.321Z,1.00
2019-02-14T19:18:25.254Z,1.00
2019-02-14T19:20:53.214Z,0.90
2019-02-14T19:23:23.987Z,0.90
2019-02-14T19:25:50.729Z,0.80
2019-02-14T19:28:18.744Z,0.80
2019-02-14T19:30:46.768Z,0.70
2019-02-14T19:33:14.728Z,0.70
2019-02-14T19:35:42.594Z,0.70
2019-02-14T19:38:10.651Z,0.60
2019-02-14T19:40:38.727Z,0.60
2019-02-14T19:43:06.708Z,0.50
2019-02-14T19:45:36.791Z,0.50
2019-02-14T19:48:04.506Z,0.50
2019-02-14T19:50:32.470Z,0.40
2019-02-14T19:53:00.424Z,0.40
2019-02-14T19:55:28.341Z,0.30
2019-02-14T19:57:56.343Z,0.30
2019-02-14T20:00:24.298Z,0.40
2019-02-14T20:02:52.196Z,0.30
2019-02-14T20:05:20.152Z,0.30
2019-02-14T20:07:48.100Z,0.20
2019-02-14T20:10:16.090Z,0.20
2019-02-14T20:12:44.092Z,0.20
2019-02-14T20:15:12.014Z,0.20
2019-02-14T20:17:39.997Z,0.20
2019-02-14T20:20:07.906Z,0.20
2019-02-14T20:22:35.870Z,0.20
2019-02-14T20:25:03.779Z,0.10
2019-02-14T20:27:31.689Z,0.10
2019-02-14T20:29:59.680Z,0.00
2019-02-14T20:32:27.608Z,0.00
2019-02-14T20:34:55.618Z,0.00
2019-02-14T20:37:23.519Z,-0.10
2019-02-14T20:39:51.417Z,-0.10
2019-02-14T20:42:19.489Z,-0.10
2019-02-14T20:44:47.482Z,-0.20
2019-02-14T20:47:15.379Z,-0.20
2019-02-14T20:49:43.434Z,-0.20
2019-02-14T20:52:11.410Z,-0.30
2019-02-14T20:54:39.333Z,-0.20
2019-02-14T20:57:07.315Z,-0.20
2019-02-14T20:59:35.221Z,-0.30
2019-02-14T21:02:03.149Z,-0.30
2019-02-14T21:04:31.021Z,-0.30
2019-02-14T21:06:58.896Z,-0.40
2019-02-14T21:09:26.906Z,-0.40
2019-02-14T21:11:55.150Z,-0.40
2019-02-14T21:14:23.190Z,-0.50
2019-02-14T21:16:51.080Z,-0.50
2019-02-14T21:19:18.997Z,-0.50
2019-02-14T21:21:46.990Z,-0.50
2019-02-14T21:24:14.984Z,-0.60
2019-02-14T21:26:43.001Z,-0.60
2019-02-14T21:29:11.057Z,-0.60
2019-02-14T21:31:39.038Z,-0.60
2019-02-14T21:34:06.916Z,-0.70
2019-02-14T21:36:34.851Z,-0.70
2019-02-14T21:39:03.234Z,-0.70
2019-02-14T21:41:31.212Z,-0.70
2019-02-14T21:43:59.211Z,-0.70
2019-02-14T21:46:27.193Z,-0.80
2019-02-14T21:48:55.058Z,-0.80
2019-02-14T21:51:23.039Z,-0.80
2019-02-14T21:53:50.942Z,-0.90
2019-02-14T21:56:18.911Z,-0.90
2019-02-14T21:58:46.856Z,-0.90
2019-02-14T22:01:16.441Z,-0.90
2019-02-14T22:03:44.404Z,-0.90
2019-02-14T22:06:12.354Z,-0.90
2019-02-14T22:08:40.365Z,-1.00
2019-02-14T22:11:08.286Z,-1.00
2019-02-14T22:13:36.231Z,-1.00
2019-02-14T22:16:04.981Z,-1.00
2019-02-14T22:18:32.886Z,-1.00
2019-02-14T22:21:00.801Z,-1.00
2019-02-14T22:23:28.683Z,-1.10
2019-02-14T22:25:56.874Z,-1.10
2019-02-14T22:28:24.728Z,-1.10
2019-02-14T22:30:52.652Z,-1.10
2019-02-14T22:33:20.575Z,-1.20
2019-02-14T22:35:48.497Z,-1.20
2019-02-14T22:38:16.448Z,-1.20
2019-02-14T22:40:44.322Z,-1.20
2019-02-14T22:43:12.174Z,-1.30
2019-02-14T22:45:40.478Z,-1.30
2019-02-14T22:48:08.373Z,-1.30
2019-02-14T22:50:36.280Z,-1.30
2019-02-14T22:53:04.171Z,-1.30
2019-02-14T22:55:32.069Z,-1.40
2019-02-14T22:57:59.942Z,-1.40
2019-02-14T23:00:30.041Z,-1.40
2019-02-14T23:02:57.899Z,-1.40
2019-02-14T23:05:25.828Z,-1.40
2019-02-14T23:07:53.824Z,-1.40
2019-02-14T23:10:21.888Z,-1.40
2019-02-14T23:12:55.471Z,-1.50
2019-02-14T23:15:19.348Z,-1.50
2019-02-14T23:17:47.226Z,-1.50
2019-02-14T23:20:15.133Z,-1.50
2019-02-14T23:22:43.031Z,-1.50
2019-02-14T23:25:10.874Z,-1.60
2019-02-14T23:27:38.752Z,-1.60
2019-02-14T23:30:06.657Z,-1.60
2019-02-14T23:32:34.679Z,-1.50
2019-02-14T23:35:02.607Z,-1.60
2019-02-14T23:37:30.514Z,-1.60
2019-02-14T23:39:58.367Z,-1.60
2019-02-14T23:42:26.236Z,-1.70
2019-02-14T23:44:54.104Z,-1.70
2019-02-14T23:47:22.018Z,-1.70
2019-02-14T23:49:49.885Z,-1.70
2019-02-14T23:52:17.769Z,-1.70
2019-02-14T23:54:45.629Z,-1.70
2019-02-14T23:57:13.622Z,-1.70
2019-02-14T23:59:41.513Z,-1.70
